Time;durP1;ratioP1;P1;durP2;ratioP2;P2;SDS_P1;SDS_P2;PMS_P1;PMS_P2;Temp;Humidity;BMP_temperature;BMP_pressure;BME280_temperature;BME280_humidity;BME280_pressure;Samples;Min_cycle;Max_cycle;Signal;HPM_P1;HPM_P2
2024/01/30 00:02:40;;;;;;;11.00;6.40;;;-1.30;74.30;;;;;;6233995;28;20193;-62
2024/01/30 00:05:41;;;;;;;8.87;5.27;;;-1.30;74.40;;;;;;6254166;28;20224;-62
2024/01/30 00:08:42;;;;;;;9.47;6.30;;;-1.30;74.50;;;;;;6246351;28;20195;-63
2024/01/30 00:11:42;;;;;;;9.60;5.70;;;-1.30;74.80;;;;;;6247597;28;20186;-62
2024/01/30 00:14:43;;;;;;;12.10;6.30;;;-1.30;74.80;;;;;;6237556;28;20198;-62
2024/01/30 00:17:44;;;;;;;10.83;5.67;;;-1.30;74.70;;;;;;6272982;28;20281;-63
2024/01/30 00:20:44;;;;;;;9.73;5.80;;;-1.20;75.00;;;;;;6268605;28;20193;-62
2024/01/30 00:23:45;;;;;;;12.43;6.40;;;-1.20;75.20;;;;;;6241711;28;20199;-62
2024/01/30 00:26:46;;;;;;;11.80;6.33;;;-1.20;75.00;;;;;;6247885;28;20193;-63
2024/01/30 00:29:47;;;;;;;10.73;6.50;;;-1.30;75.00;;;;;;6239276;28;20198;-62
2024/01/30 00:32:47;;;;;;;11.47;6.93;;;-1.30;75.40;;;;;;6238114;28;20193;-62
2024/01/30 00:35:48;;;;;;;15.00;6.20;;;-1.30;75.60;;;;;;6284975;28;20289;-62
2024/01/30 00:38:49;;;;;;;9.73;6.53;;;-1.30;75.50;;;;;;6249089;28;20206;-62
2024/01/30 00:41:49;;;;;;;9.50;6.27;;;-1.30;75.10;;;;;;6261967;28;20198;-62
2024/01/30 00:44:50;;;;;;;11.13;5.97;;;-1.30;75.30;;;;;;6254476;28;20301;-62
2024/01/30 00:47:51;;;;;;;8.50;6.03;;;-1.30;75.50;;;;;;6282053;28;20192;-62
2024/01/30 00:50:52;;;;;;;10.30;5.57;;;-1.40;75.70;;;;;;6250900;28;20193;-62
2024/01/30 00:53:52;;;;;;;10.30;5.67;;;-1.30;75.70;;;;;;6252981;28;20196;-62
2024/01/30 00:56:53;;;;;;;11.73;6.10;;;-1.50;75.50;;;;;;6253702;28;20213;-63
2024/01/30 00:59:54;;;;;;;7.47;5.60;;;-1.50;75.30;;;;;;6248586;28;20229;-62
2024/01/30 01:02:55;;;;;;;10.47;6.80;;;24.00;50.00;;;;;;6247275;28;20189;-62
2024/01/30 01:05:56;;;;;;;9.13;5.73;;;-1.50;75.10;;;;;;6258735;28;20271;-62
2024/01/30 01:08:57;;;;;;;8.63;5.90;;;-1.50;75.20;;;;;;6272107;28;20190;-62
2024/01/30 01:11:57;;;;;;;11.70;7.03;;;-1.50;75.50;;;;;;6265607;28;20189;-62
2024/01/30 01:14:58;;;;;;;11.47;6.17;;;-1.60;75.50;;;;;;6261305;28;20243;-63
2024/01/30 01:17:59;;;;;;;11.20;5.87;;;-1.50;75.20;;;;;;6239311;28;20327;-62
2024/01/30 01:21:00;;;;;;;7.97;5.93;;;-1.50;75.30;;;;;;6252563;28;20344;-62
2024/01/30 01:24:01;;;;;;;11.27;5.93;;;-1.50;75.70;;;;;;6243968;28;20252;-63
2024/01/30 01:27:02;;;;;;;8.77;5.43;;;-1.50;75.90;;;;;;6259936;28;20188;-63
2024/01/30 01:30:05;;;;;;;10.70;6.90;;;-1.50;75.70;;;;;;6264431;28;20327;-63
2024/01/30 01:33:06;;;;;;;8.27;5.90;;;-1.50;75.60;;;;;;6237627;28;20193;-63
2024/01/30 01:36:07;;;;;;;10.93;5.93;;;-1.50;75.80;;;;;;6265518;28;20205;-62
2024/01/30 01:39:08;;;;;;;10.10;5.60;;;-1.50;76.10;;;;;;6277957;28;20206;-62
2024/01/30 01:42:09;;;;;;;10.83;5.90;;;-1.50;76.10;;;;;;6244467;28;20223;-62
2024/01/30 01:45:09;;;;;;;9.03;5.60;;;-1.50;75.90;;;;;;6256921;28;20300;-62
2024/01/30 01:48:10;;;;;;;12.00;6.30;;;-1.50;76.10;;;;;;6250145;28;20280;-62
2024/01/30 01:51:11;;;;;;;7.53;5.77;;;-1.60;75.90;;;;;;6260175;28;20197;-62
2024/01/30 01:54:12;;;;;;;7.03;5.37;;;-1.60;75.90;;;;;;6264412;28;20209;-62
2024/01/30 01:57:13;;;;;;;11.47;5.93;;;-1.60;76.10;;;;;;6254022;28;20197;-62
2024/01/30 02:00:15;;;;;;;8.93;6.27;;;-1.60;75.90;;;;;;6249156;28;20244;-63
2024/01/30 02:03:21;;;;;;;11.37;6.10;;;-1.60;75.70;;;;;;6250703;28;20280;-62
2024/01/30 02:06:22;;;;;;;10.60;6.10;;;-1.70;75.70;;;;;;6254371;28;20247;-62
2024/01/30 02:09:23;;;;;;;10.77;6.20;;;-1.70;76.10;;;;;;6273005;28;20191;-62
2024/01/30 02:12:23;;;;;;;13.07;5.87;;;-1.70;75.90;;;;;;6256979;28;20190;-62
2024/01/30 02:15:24;;;;;;;12.67;6.40;;;-1.70;76.30;;;;;;6251229;28;20190;-62
2024/01/30 02:18:25;;;;;;;9.47;6.07;;;-1.70;75.80;;;;;;6241148;28;20198;-62
2024/01/30 02:21:26;;;;;;;10.17;5.83;;;-1.70;76.00;;;;;;6256647;28;20235;-62
2024/01/30 02:24:26;;;;;;;9.07;5.43;;;-1.70;75.50;;;;;;6248129;28;20210;-62
2024/01/30 02:27:27;;;;;;;9.37;5.73;;;-1.70;75.90;;;;;;6259493;28;20193;-63
2024/01/30 02:30:28;;;;;;;10.03;6.00;;;-1.70;76.20;;;;;;6264186;28;20239;-63
2024/01/30 02:33:28;;;;;;;7.37;5.37;;;-1.70;76.40;;;;;;6261353;28;20278;-63
2024/01/30 02:36:29;;;;;;;11.10;6.13;;;-1.70;76.40;;;;;;6234390;28;20196;-62
2024/01/30 02:39:30;;;;;;;10.10;5.50;;;-1.70;76.50;;;;;;6264183;28;20225;-62
2024/01/30 02:42:30;;;;;;;11.07;5.90;;;-1.70;76.80;;;;;;6282016;28;20200;-62
2024/01/30 02:45:31;;;;;;;8.67;5.43;;;-1.80;76.20;;;;;;6255070;28;20206;-62
2024/01/30 02:48:32;;;;;;;9.87;6.10;;;-1.80;76.30;;;;;;6247070;28;20219;-62
2024/01/30 02:51:32;;;;;;;9.97;4.70;;;-1.80;76.50;;;;;;6252132;28;20235;-63
2024/01/30 02:54:33;;;;;;;10.17;6.03;;;-1.80;76.00;;;;;;6250770;28;20202;-62
2024/01/30 02:57:34;;;;;;;8.40;4.93;;;-1.90;76.50;;;;;;6249769;28;20200;-62
2024/01/30 03:00:35;;;;;;;10.43;5.33;;;-1.80;76.30;;;;;;6242890;28;20256;-62
2024/01/30 03:03:35;;;;;;;9.07;5.20;;;-1.80;76.50;;;;;;6253130;28;20200;-63
2024/01/30 03:06:36;;;;;;;7.40;5.13;;;-1.70;76.50;;;;;;6247932;28;20243;-62
2024/01/30 03:09:37;;;;;;;9.10;5.57;;;-1.70;76.20;;;;;;6252803;28;20267;-62
2024/01/30 03:12:38;;;;;;;8.60;5.13;;;-1.70;76.00;;;;;;6272957;28;20289;-62
2024/01/30 03:15:38;;;;;;;9.17;5.23;;;-1.70;76.00;;;;;;6258001;28;20196;-62
2024/01/30 03:18:39;;;;;;;13.23;5.50;;;-1.80;76.20;;;;;;6275388;28;20191;-62
2024/01/30 03:21:40;;;;;;;9.73;5.70;;;-1.80;76.40;;;;;;6260985;28;20189;-62
2024/01/30 03:24:41;;;;;;;9.00;4.70;;;-1.80;76.60;;;;;;6248131;28;20220;-62
2024/01/30 03:27:41;;;;;;;9.17;5.00;;;-1.90;76.10;;;;;;6254157;28;20196;-62
2024/01/30 03:30:42;;;;;;;8.43;5.30;;;;;;;;;;6242180;28;20189;-62
2024/01/30 03:33:44;;;;;;;8.87;5.27;;;;;;;;;;6273390;28;20188;-62
2024/01/30 03:36:45;;;;;;;6.20;5.13;;;;;;;;;;6280575;28;20224;-62
2024/01/30 03:39:46;;;;;;;9.03;5.60;;;;;;;;;;6252634;28;20189;-62
2024/01/30 03:42:47;;;;;;;11.27;6.33;;;;;;;;;;6282695;28;20192;-62
2024/01/30 03:45:48;;;;;;;7.77;4.90;;;;;;;;;;6277935;28;20232;-62
2024/01/30 03:48:49;;;;;;;11.17;5.70;;;-1.90;76.00;;;;;;6283771;28;20188;-63
2024/01/30 03:51:49;;;;;;;7.73;5.17;;;-2.10;76.20;;;;;;6245710;28;20197;-62
2024/01/30 03:54:50;;;;;;;6.43;4.70;;;-2.20;76.20;;;;;;6248442;28;20192;-62
2024/01/30 03:57:51;;;;;;;10.37;5.63;;;-2.20;76.40;;;;;;6240560;28;20196;-62
2024/01/30 04:00:51;;;;;;;11.47;5.43;;;-2.20;76.50;;;;;;6233000;28;20248;-62
2024/01/30 04:03:52;;;;;;;7.50;4.80;;;-2.20;76.70;;;;;;6268153;28;20196;-63
2024/01/30 04:06:53;;;;;;;11.23;4.43;;;-2.20;76.40;;;;;;6253295;28;20253;-62
2024/01/30 04:09:53;;;;;;;8.50;5.43;;;-2.20;76.50;;;;;;6252770;28;20195;-62
2024/01/30 04:12:54;;;;;;;8.73;4.70;;;-2.20;76.60;;;;;;6254291;28;20222;-62
2024/01/30 04:15:56;;;;;;;8.40;5.60;;;-2.30;76.70;;;;;;6246713;28;20205;-63
2024/01/30 04:18:57;;;;;;;9.93;5.17;;;-2.30;76.90;;;;;;6249888;28;20282;-62
2024/01/30 04:21:58;;;;;;;9.03;5.50;;;-2.30;77.00;;;;;;6241834;28;20213;-62
2024/01/30 04:24:59;;;;;;;9.27;4.93;;;-2.30;77.30;;;;;;6255164;28;20263;-62
2024/01/30 04:27:59;;;;;;;8.47;5.43;;;-2.30;77.50;;;;;;6249282;28;20196;-62
2024/01/30 04:31:00;;;;;;;7.87;5.53;;;-2.30;77.30;;;;;;6235145;28;20189;-63
2024/01/30 04:34:01;;;;;;;8.70;4.47;;;-2.30;77.20;;;;;;6255569;28;20203;-62
2024/01/30 04:37:02;;;;;;;8.97;4.90;;;-2.30;77.00;;;;;;6245419;28;20274;-62
2024/01/30 04:40:03;;;;;;;6.00;4.63;;;-2.40;76.90;;;;;;6254477;28;20201;-62
2024/01/30 04:43:03;;;;;;;9.80;5.33;;;-2.40;77.20;;;;;;6257969;28;20196;-62
2024/01/30 04:46:05;;;;;;;7.13;5.00;;;-2.40;77.00;;;;;;6259376;28;20219;-62
2024/01/30 04:49:07;;;;;;;10.40;5.47;;;-2.50;76.80;;;;;;6261130;28;20223;-62
2024/01/30 04:52:09;;;;;;;9.93;5.07;;;-2.50;76.60;;;;;;6245352;28;20245;-62
2024/01/30 04:55:09;;;;;;;12.03;6.20;;;-2.50;76.70;;;;;;6259140;28;20342;-62
2024/01/30 04:58:10;;;;;;;9.47;5.97;;;-2.50;76.90;;;;;;6254668;28;20287;-62
2024/01/30 05:01:16;;;;;;;6.63;4.57;;;-2.50;77.00;;;;;;6252693;28;20243;-62
2024/01/30 05:04:16;;;;;;;10.40;5.63;;;-2.50;76.90;;;;;;6237872;28;20221;-62
2024/01/30 05:07:18;;;;;;;11.03;5.47;;;-2.60;77.00;;;;;;6252796;28;20200;-67
2024/01/30 05:10:18;;;;;;;8.20;5.87;;;-2.60;77.30;;;;;;6263857;28;20219;-64
2024/01/30 05:13:19;;;;;;;7.90;5.53;;;-2.60;77.00;;;;;;6251162;28;20194;-62
2024/01/30 05:16:20;;;;;;;8.63;5.23;;;-2.60;77.30;;;;;;6242643;28;20285;-62
2024/01/30 05:19:23;;;;;;;5.00;4.50;;;-2.60;77.30;;;;;;6246909;28;20207;-62
2024/01/30 05:22:23;;;;;;;9.70;5.43;;;-2.60;77.00;;;;;;6259936;28;20204;-62
2024/01/30 05:25:24;;;;;;;9.87;5.77;;;-2.60;77.00;;;;;;6238370;28;20219;-62
2024/01/30 05:28:25;;;;;;;10.07;5.17;;;-2.60;77.20;;;;;;6248156;28;20205;-62
2024/01/30 05:31:27;;;;;;;8.20;5.10;;;-2.60;76.80;;;;;;6267313;28;20190;-62
2024/01/30 05:34:27;;;;;;;7.30;5.57;;;-2.60;76.50;;;;;;6242237;28;20281;-62
2024/01/30 05:37:28;;;;;;;6.57;5.03;;;-2.70;76.50;;;;;;6248858;28;20265;-61
2024/01/30 05:40:29;;;;;;;11.37;5.40;;;-2.70;76.80;;;;;;6263292;28;20294;-62
2024/01/30 05:43:29;;;;;;;9.57;4.97;;;-2.80;76.90;;;;;;6255926;28;20202;-62
2024/01/30 05:46:30;;;;;;;8.40;5.17;;;-2.80;77.20;;;;;;6251201;28;20223;-62
2024/01/30 05:49:30;;;;;;;11.63;6.10;;;-2.70;76.80;;;;;;6249295;28;20193;-61
2024/01/30 05:52:31;;;;;;;9.23;5.77;;;-2.80;76.60;;;;;;6247987;28;20200;-62
2024/01/30 05:55:32;;;;;;;10.00;6.87;;;-2.80;76.80;;;;;;6244852;28;20197;-62
2024/01/30 05:58:33;;;;;;;9.73;5.67;;;-2.80;77.00;;;;;;6249351;28;20200;-62
2024/01/30 06:01:34;;;;;;;10.27;5.90;;;-2.80;76.90;;;;;;6246774;28;20247;-62
2024/01/30 06:04:35;;;;;;;8.40;5.13;;;-2.80;77.00;;;;;;6268985;28;20212;-61
2024/01/30 06:07:35;;;;;;;7.63;4.90;;;-2.90;77.00;;;;;;6250325;28;20244;-62
2024/01/30 06:10:36;;;;;;;10.30;5.40;;;-2.90;77.50;;;;;;6259889;28;20226;-61
2024/01/30 06:13:37;;;;;;;9.80;5.57;;;-2.80;77.90;;;;;;6253807;28;20251;-62
2024/01/30 06:16:38;;;;;;;11.67;5.70;;;-2.70;78.20;;;;;;6253143;28;20192;-62
2024/01/30 06:19:39;;;;;;;11.20;5.70;;;-2.70;78.40;;;;;;6259581;28;20254;-61
2024/01/30 06:22:39;;;;;;;11.73;5.37;;;-2.70;78.30;;;;;;6256269;28;20206;-62
2024/01/30 06:25:40;;;;;;;7.23;5.60;;;-2.70;78.00;;;;;;6259316;28;20212;-62
2024/01/30 06:28:41;;;;;;;7.87;5.27;;;-2.70;77.40;;;;;;6250693;28;20257;-62
2024/01/30 06:31:42;;;;;;;8.93;6.03;;;-2.70;77.40;;;;;;6265623;28;20192;-61
2024/01/30 06:34:44;;;;;;;10.90;5.70;;;-2.80;77.60;;;;;;6285484;28;20196;-61
2024/01/30 06:37:45;;;;;;;10.23;5.47;;;-2.80;77.50;;;;;;6259819;28;20201;-62
2024/01/30 06:40:45;;;;;;;9.07;5.40;;;-2.80;77.70;;;;;;6247501;28;20203;-62
2024/01/30 06:43:46;;;;;;;8.70;5.20;;;-2.80;77.70;;;;;;6241906;28;20193;-61
2024/01/30 06:46:47;;;;;;;10.23;5.57;;;-2.80;77.70;;;;;;6238027;28;20195;-61
2024/01/30 06:49:47;;;;;;;7.23;4.60;;;-2.80;77.80;;;;;;6258453;28;20199;-61
2024/01/30 06:52:48;;;;;;;11.23;5.33;;;-2.80;77.60;;;;;;6252815;28;20199;-62
2024/01/30 06:55:49;;;;;;;8.57;5.13;;;-2.70;77.80;;;;;;6258541;28;20231;-62
2024/01/30 06:58:50;;;;;;;9.40;5.17;;;-2.80;77.80;;;;;;6263805;28;20218;-62
2024/01/30 07:01:51;;;;;;;7.83;5.07;;;-2.70;77.90;;;;;;6288946;28;20236;-62
2024/01/30 07:04:51;;;;;;;6.70;5.13;;;-2.70;77.90;;;;;;6254163;28;20251;-62
2024/01/30 07:07:52;;;;;;;10.97;5.73;;;-2.60;78.20;;;;;;6259798;28;20200;-61
2024/01/30 07:10:55;;;;;;;8.10;5.70;;;-2.60;78.40;;;;;;6247238;28;20263;-62
2024/01/30 07:13:55;;;;;;;9.90;6.33;;;-2.50;78.70;;;;;;6245524;28;20194;-61
2024/01/30 07:16:56;;;;;;;8.97;5.67;;;-2.50;78.50;;;;;;6245356;28;20192;-61
2024/01/30 07:19:57;;;;;;;8.43;5.80;;;-2.50;77.90;;;;;;6249350;28;20211;-61
2024/01/30 07:22:58;;;;;;;8.30;6.00;;;-2.50;78.00;;;;;;6265989;28;20199;-61
2024/01/30 07:25:59;;;;;;;8.90;5.93;;;-2.40;78.60;;;;;;6251449;28;20212;-62
2024/01/30 07:29:00;;;;;;;7.67;5.50;;;-2.40;78.60;;;;;;6242757;28;20192;-62
2024/01/30 07:32:00;;;;;;;15.37;5.80;;;-2.40;78.40;;;;;;6246219;28;20199;-62
2024/01/30 07:35:01;;;;;;;9.23;5.77;;;-2.30;78.20;;;;;;6240978;28;20197;-62
2024/01/30 07:38:02;;;;;;;8.63;5.63;;;-2.30;78.20;;;;;;6257470;28;20195;-62
2024/01/30 07:41:03;;;;;;;14.47;6.20;;;-2.30;78.60;;;;;;6247304;28;20261;-62
2024/01/30 07:44:03;;;;;;;10.70;5.90;;;-2.30;78.60;;;;;;6247972;28;20200;-61
2024/01/30 07:47:05;;;;;;;9.60;4.50;;;-2.20;78.30;;;;;;6279995;28;20216;-62
2024/01/30 07:50:06;;;;;;;10.33;5.37;;;-2.20;78.40;;;;;;6263695;28;20276;-62
2024/01/30 07:53:07;;;;;;;11.30;6.17;;;-2.10;78.40;;;;;;6266135;28;20227;-62
2024/01/30 07:56:08;;;;;;;13.97;7.47;;;-2.10;78.60;;;;;;6255043;28;20219;-62
2024/01/30 07:59:12;;;;;;;13.13;7.40;;;-1.90;78.90;;;;;;6249433;28;20202;-62
2024/01/30 08:02:13;;;;;;;8.60;6.50;;;-1.90;79.00;;;;;;6271276;28;20249;-62
2024/01/30 08:05:15;;;;;;;9.87;6.20;;;-1.80;78.60;;;;;;6267383;28;20214;-62
2024/01/30 08:08:15;;;;;;;10.70;6.17;;;-1.70;78.10;;;;;;6258097;28;20192;-62
2024/01/30 08:11:16;;;;;;;12.40;5.97;;;-1.70;78.30;;;;;;6248070;28;20277;-62
2024/01/30 08:14:17;;;;;;;10.27;5.40;;;-1.60;77.80;;;;;;6276072;28;20229;-61
2024/01/30 08:17:17;;;;;;;11.37;5.10;;;-1.60;77.70;;;;;;6246123;28;20204;-62
2024/01/30 08:20:18;;;;;;;9.90;5.70;;;-1.50;77.50;;;;;;6238414;28;20239;-62
2024/01/30 08:23:19;;;;;;;12.40;6.90;;;-1.50;77.30;;;;;;6248763;28;20289;-62
2024/01/30 08:26:19;;;;;;;17.87;9.47;;;-1.40;76.50;;;;;;6244546;28;20229;-62
2024/01/30 08:29:20;;;;;;;29.97;17.90;;;-1.30;76.30;;;;;;6254416;28;20194;-62
2024/01/30 08:32:21;;;;;;;21.80;14.97;;;-1.20;75.80;;;;;;6258443;28;20193;-62
2024/01/30 08:35:22;;;;;;;19.83;11.83;;;-1.10;75.50;;;;;;6244752;28;20261;-62
2024/01/30 08:38:22;;;;;;;14.70;8.47;;;-1.10;75.20;;;;;;6237587;28;20210;-62
2024/01/30 08:41:23;;;;;;;14.90;7.97;;;-1.00;75.00;;;;;;6248754;28;20186;-62
2024/01/30 08:44:24;;;;;;;12.77;7.43;;;-1.00;75.10;;;;;;6258999;28;20264;-62
2024/01/30 08:47:25;;;;;;;11.00;7.70;;;-0.90;75.20;;;;;;6247694;28;20193;-62
2024/01/30 08:50:26;;;;;;;10.87;6.63;;;-0.90;74.80;;;;;;6246573;28;20181;-62
2024/01/30 08:53:26;;;;;;;11.43;6.30;;;-0.80;74.30;;;;;;6264047;28;20225;-62
2024/01/30 08:56:27;;;;;;;11.70;7.50;;;-0.70;74.30;;;;;;6237905;28;20200;-62
2024/01/30 08:59:28;;;;;;;12.63;8.77;;;-0.70;73.80;;;;;;6258314;28;20189;-62
2024/01/30 09:02:28;;;;;;;12.87;8.60;;;-0.70;73.90;;;;;;6259032;28;20248;-62
2024/01/30 09:05:29;;;;;;;15.13;7.07;;;;;;;;;;6272932;28;20210;-62
2024/01/30 09:08:30;;;;;;;11.93;6.27;;;;;;;;;;6258101;28;20212;-62
2024/01/30 09:11:32;;;;;;;11.53;6.90;;;;;;;;;;6256962;28;20218;-62
2024/01/30 09:14:33;;;;;;;10.00;6.13;;;;;;;;;;6275191;28;20254;-62
2024/01/30 09:17:34;;;;;;;17.47;7.43;;;;;;;;;;6270325;28;20194;-62
2024/01/30 09:20:35;;;;;;;9.80;6.43;;;;;;;;;;6255914;28;20186;-62
2024/01/30 09:23:36;;;;;;;9.83;5.97;;;;;;;;;;6249285;28;20204;-63
2024/01/30 09:26:37;;;;;;;10.63;5.93;;;;;;;;;;6269565;28;20205;-62
2024/01/30 09:29:39;;;;;;;10.87;6.80;;;;;;;;;;6283199;28;20251;-62
2024/01/30 09:32:40;;;;;;;11.23;6.93;;;;;;;;;;6268764;28;20249;-62
2024/01/30 09:35:41;;;;;;;11.33;6.17;;;;;;;;;;6262693;28;20195;-62
2024/01/30 09:38:42;;;;;;;9.23;5.43;;;;;;;;;;6243009;28;20206;-62
2024/01/30 09:41:54;;;;;;;12.60;6.30;;;;;;;;;;6254092;28;20195;-62
2024/01/30 09:44:55;;;;;;;8.80;5.40;;;;;;;;;;6260520;28;20357;-62
2024/01/30 09:47:56;;;;;;;9.20;6.03;;;;;;;;;;6254962;28;20248;-62
2024/01/30 09:50:58;;;;;;;8.57;5.40;;;;;;;;;;6275488;28;20187;-62
2024/01/30 09:53:58;;;;;;;11.30;5.70;;;24.00;50.00;;;;;;6277469;28;20194;-62
2024/01/30 09:56:59;;;;;;;10.10;5.67;;;0.60;70.30;;;;;;6245995;28;20216;-62
2024/01/30 10:00:00;;;;;;;10.20;6.17;;;0.60;70.10;;;;;;6253853;28;20260;-62
2024/01/30 10:03:00;;;;;;;10.00;5.70;;;0.80;69.50;;;;;;6260940;28;20187;-62
2024/01/30 10:06:02;;;;;;;17.90;10.43;;;0.80;69.60;;;;;;6256126;28;20309;-62
2024/01/30 10:09:02;;;;;;;17.33;10.63;;;1.00;69.20;;;;;;6257466;28;20335;-62
2024/01/30 10:12:04;;;;;;;17.27;10.83;;;1.10;69.40;;;;;;6252027;28;20217;-62
2024/01/30 10:15:08;;;;;;;18.40;9.53;;;1.20;68.70;;;;;;6253626;28;20205;-62
2024/01/30 10:18:10;;;;;;;17.57;11.30;;;;;;;;;;6256862;28;20249;-62
2024/01/30 10:21:11;;;;;;;17.43;10.50;;;;;;;;;;6267302;28;20293;-62
2024/01/30 10:24:15;;;;;;;17.97;11.03;;;;;;;;;;6267585;28;20194;-62
2024/01/30 10:27:16;;;;;;;24.00;11.90;;;;;;;;;;6276635;28;20197;-62
2024/01/30 10:30:17;;;;;;;14.87;10.87;;;;;;;;;;6250871;28;20201;-62
2024/01/30 10:33:18;;;;;;;21.07;12.03;;;;;;;;;;6267747;28;20185;-62
2024/01/30 10:36:19;;;;;;;23.20;12.53;;;;;;;;;;6273876;28;20200;-62
2024/01/30 10:39:21;;;;;;;21.23;13.20;;;;;;;;;;6251144;28;20202;-62
2024/01/30 10:42:27;;;;;;;30.67;13.63;;;;;;;;;;6266320;28;20195;-62
2024/01/30 10:45:28;;;;;;;20.37;13.07;;;;;;;;;;6272356;28;20217;-62
2024/01/30 10:48:33;;;;;;;22.97;13.13;;;;;;;;;;6266805;28;20178;-62
2024/01/30 10:51:35;;;;;;;20.20;13.10;;;;;;;;;;6262929;28;20313;-62
2024/01/30 10:54:37;;;;;;;21.67;13.77;;;;;;;;;;6262052;28;20199;-62
2024/01/30 10:57:38;;;;;;;21.83;13.30;;;1.20;69.10;;;;;;6265071;28;20195;-62
2024/01/30 11:00:39;;;;;;;24.50;13.63;;;2.50;67.60;;;;;;6253662;28;20251;-62
2024/01/30 11:03:40;;;;;;;24.07;14.27;;;2.60;67.50;;;;;;6251663;28;20193;-62
2024/01/30 11:06:43;;;;;;;18.17;13.30;;;2.70;67.00;;;;;;6250567;28;20213;-61
2024/01/30 11:09:51;;;;;;;18.17;13.33;;;;;;;;;;6253039;28;20191;-62
2024/01/30 11:12:52;;;;;;;22.73;14.50;;;;;;;;;;6253487;28;20282;-62
2024/01/30 11:15:53;;;;;;;19.73;13.40;;;2.80;67.00;;;;;;6241245;28;20277;-62
2024/01/30 11:18:54;;;;;;;20.80;13.93;;;3.10;65.80;;;;;;6252758;28;20202;-62
2024/01/30 11:21:56;;;;;;;20.37;13.80;;;3.10;66.10;;;;;;6255023;28;20221;-62
2024/01/30 11:24:58;;;;;;;22.03;13.57;;;3.30;65.60;;;;;;6255512;28;20227;-62
2024/01/30 11:27:59;;;;;;;21.30;13.97;;;3.30;65.70;;;;;;6253943;28;20209;-62
2024/01/30 11:31:04;;;;;;;23.70;14.70;;;;;;;;;;6266311;28;20190;-62
2024/01/30 11:34:06;;;;;;;20.97;13.40;;;;;;;;;;6270666;28;20204;-62
2024/01/30 11:37:10;;;;;;;24.93;13.63;;;;;;;;;;6266123;28;20183;-62
2024/01/30 11:40:11;;;;;;;20.27;13.00;;;;;;;;;;6249693;28;20198;-62
2024/01/30 11:43:12;;;;;;;22.60;13.77;;;;;;;;;;6258755;28;20190;-62
2024/01/30 11:46:14;;;;;;;22.20;14.00;;;;;;;;;;6265659;28;20209;-62
2024/01/30 11:49:15;;;;;;;20.80;13.13;;;;;;;;;;6248664;28;20189;-62
2024/01/30 11:52:16;;;;;;;20.00;13.50;;;;;;;;;;6283059;28;20244;-62
2024/01/30 11:55:18;;;;;;;26.47;13.10;;;;;;;;;;6276351;28;20216;-62
2024/01/30 11:58:19;;;;;;;21.47;13.47;;;3.50;65.30;;;;;;6266187;28;20206;-62
2024/01/30 12:01:19;;;;;;;18.27;13.23;;;4.50;62.50;;;;;;6247068;28;20253;-62
2024/01/30 12:04:20;;;;;;;24.90;12.67;;;4.50;61.80;;;;;;6254399;28;20308;-62
2024/01/30 12:07:21;;;;;;;17.20;12.00;;;4.70;61.60;;;;;;6257843;28;20285;-62
2024/01/30 12:10:23;;;;;;;22.47;13.20;;;4.70;61.20;;;;;;6221194;28;20218;-62
2024/01/30 12:13:25;;;;;;;18.73;12.83;;;4.80;61.60;;;;;;6237834;28;20196;-62
2024/01/30 12:16:26;;;;;;;18.43;12.10;;;5.00;61.00;;;;;;6252998;28;20220;-63
2024/01/30 12:19:26;;;;;;;18.93;11.63;;;5.10;59.90;;;;;;6249362;28;20202;-62
2024/01/30 12:22:27;;;;;;;16.37;12.87;;;5.20;59.40;;;;;;6253176;28;20274;-62
2024/01/30 12:25:28;;;;;;;18.67;12.20;;;5.30;59.70;;;;;;6251199;28;20229;-62
2024/01/30 12:28:29;;;;;;;17.90;12.33;;;5.40;59.00;;;;;;6246284;28;20185;-62
2024/01/30 12:31:32;;;;;;;16.50;11.87;;;5.50;58.40;;;;;;6251953;28;20187;-62
2024/01/30 12:34:32;;;;;;;15.77;10.83;;;5.60;57.30;;;;;;6256565;28;20198;-62
2024/01/30 12:37:33;;;;;;;19.47;11.43;;;5.70;58.10;;;;;;6251288;28;20189;-62
2024/01/30 12:40:34;;;;;;;18.70;11.50;;;5.80;56.70;;;;;;6248208;28;20209;-63
2024/01/30 12:43:35;;;;;;;16.23;10.27;;;5.90;56.90;;;;;;6254094;28;20209;-62
2024/01/30 12:46:35;;;;;;;16.70;11.13;;;6.00;56.10;;;;;;6235821;28;20317;-62
2024/01/30 12:49:36;;;;;;;16.93;10.47;;;6.10;56.60;;;;;;6248188;28;20267;-63
2024/01/30 12:52:37;;;;;;;18.77;11.53;;;6.20;56.00;;;;;;6225204;28;20191;-63
2024/01/30 12:55:38;;;;;;;17.83;11.13;;;6.30;55.90;;;;;;6279041;28;20199;-62
2024/01/30 12:58:39;;;;;;;15.33;10.83;;;6.40;55.60;;;;;;6250832;28;20329;-63
2024/01/30 13:01:39;;;;;;;14.97;10.07;;;6.40;55.70;;;;;;6248058;28;20393;-63
2024/01/30 13:04:40;;;;;;;15.63;10.57;;;6.50;55.00;;;;;;6246533;28;20214;-62
2024/01/30 13:07:41;;;;;;;17.93;10.73;;;6.60;55.20;;;;;;6269310;28;20186;-62
2024/01/30 13:10:41;;;;;;;19.00;10.83;;;6.70;54.20;;;;;;6243740;28;20191;-62
2024/01/30 13:13:42;;;;;;;17.30;10.80;;;6.70;54.50;;;;;;6267053;28;20216;-62
2024/01/30 13:16:43;;;;;;;17.60;10.03;;;6.90;53.90;;;;;;6249637;28;20200;-62
2024/01/30 13:19:43;;;;;;;18.57;10.90;;;6.90;53.60;;;;;;6266099;28;20193;-63
2024/01/30 13:22:45;;;;;;;15.53;10.20;;;;;;;;;;6254725;28;20191;-62
2024/01/30 13:25:46;;;;;;;15.40;10.10;;;;;;;;;;6287788;28;20210;-62
2024/01/30 13:28:47;;;;;;;13.70;9.63;;;;;;;;;;6254596;28;20182;-63
2024/01/30 13:31:48;;;;;;;18.93;10.33;;;;;;;;;;6253805;28;20221;-62
2024/01/30 13:34:49;;;;;;;14.13;10.00;;;6.90;53.60;;;;;;6248165;28;20199;-62
2024/01/30 13:37:49;;;;;;;15.47;10.10;;;7.30;52.10;;;;;;6259913;28;20262;-62
2024/01/30 13:40:50;;;;;;;12.40;9.23;;;7.40;51.70;;;;;;6245448;28;20199;-62
2024/01/30 13:43:51;;;;;;;14.87;9.47;;;7.50;52.10;;;;;;6257941;28;20197;-62
2024/01/30 13:46:52;;;;;;;13.03;9.73;;;;;;;;;;6256367;28;20224;-63
2024/01/30 13:49:53;;;;;;;15.37;9.50;;;;;;;;;;6270530;28;20194;-62
2024/01/30 13:52:54;;;;;;;15.30;9.57;;;;;;;;;;6273105;28;20190;-64
2024/01/30 13:55:55;;;;;;;13.40;9.10;;;;;;;;;;6274202;28;20224;-63
2024/01/30 13:58:57;;;;;;;13.20;10.37;;;;;;;;;;6247806;28;20206;-63
2024/01/30 14:01:58;;;;;;;12.93;9.37;;;;;;;;;;6254617;28;20242;-63
2024/01/30 14:04:59;;;;;;;13.03;9.50;;;;;;;;;;6249245;28;20227;-62
2024/01/30 14:08:00;;;;;;;12.95;10.20;;;;;;;;;;6290330;28;20763;-63
2024/01/30 14:11:01;;;;;;;14.43;10.70;;;;;;;;;;6263328;28;20278;-61
2024/01/30 14:14:02;;;;;;;13.83;9.90;;;;;;;;;;6258987;28;20200;-61
2024/01/30 14:17:06;;;;;;;13.73;10.27;;;;;;;;;;6246036;28;20201;-62
2024/01/30 14:20:08;;;;;;;10.93;8.90;;;;;;;;;;6268652;28;20199;-61
2024/01/30 14:23:09;;;;;;;11.40;9.20;;;;;;;;;;6268997;28;20198;-61
2024/01/30 14:26:10;;;;;;;12.57;9.70;;;;;;;;;;6293636;28;20207;-60
2024/01/30 14:29:11;;;;;;;14.10;9.83;;;;;;;;;;6255625;28;20190;-62
2024/01/30 14:32:12;;;;;;;15.07;10.10;;;;;;;;;;6250136;28;20206;-61
2024/01/30 14:35:13;;;;;;;13.37;10.50;;;;;;;;;;6262992;28;20684;-61
2024/01/30 14:38:14;;;;;;;10.90;9.27;;;;;;;;;;6259850;28;20229;-60
2024/01/30 14:41:15;;;;;;;13.23;9.73;;;;;;;;;;6282356;28;20194;-61
2024/01/30 14:44:16;;;;;;;12.03;9.30;;;;;;;;;;6270714;28;20194;-63
2024/01/30 14:47:17;;;;;;;13.17;9.50;;;;;;;;;;6269276;28;20265;-65
2024/01/30 14:50:18;;;;;;;13.03;10.80;;;;;;;;;;6270283;28;20213;-61
2024/01/30 14:53:19;;;;;;;13.50;9.83;;;;;;;;;;6243500;28;20284;-61
2024/01/30 14:56:21;;;;;;;12.60;9.97;;;;;;;;;;6247811;28;20190;-60
2024/01/30 14:59:22;;;;;;;12.73;9.23;;;;;;;;;;6248296;28;20220;-62
2024/01/30 15:02:23;;;;;;;10.90;9.00;;;;;;;;;;6249628;28;20287;-61
2024/01/30 15:05:24;;;;;;;14.03;10.57;;;;;;;;;;6274959;28;20214;-61
2024/01/30 15:08:25;;;;;;;15.10;10.50;;;;;;;;;;6270445;28;20187;-62
2024/01/30 15:11:26;;;;;;;11.93;10.23;;;;;;;;;;6266806;28;20183;-60
2024/01/30 15:14:27;;;;;;;11.40;9.93;;;;;;;;;;6252551;28;20189;-61
2024/01/30 15:17:28;;;;;;;15.53;9.73;;;;;;;;;;6254436;28;20281;-60
2024/01/30 15:20:31;;;;;;;13.17;9.07;;;;;;;;;;6248288;28;20194;-61
2024/01/30 15:23:32;;;;;;;14.97;9.43;;;;;;;;;;6279672;28;20252;-61
2024/01/30 15:26:33;;;;;;;11.13;9.20;;;;;;;;;;6267807;28;20225;-63
2024/01/30 15:29:34;;;;;;;11.40;8.50;;;;;;;;;;6294804;28;20190;-62
2024/01/30 15:32:35;;;;;;;14.47;9.20;;;;;;;;;;6245629;28;20221;-64
2024/01/30 15:35:37;;;;;;;10.63;8.27;;;24.00;50.00;;;;;;6254472;28;20659;-60
2024/01/30 15:38:38;;;;;;;14.17;9.17;;;5.90;55.30;;;;;;6249529;28;20202;-61
2024/01/30 15:41:39;;;;;;;11.53;9.47;;;5.80;55.40;;;;;;6249487;28;20204;-61
2024/01/30 15:44:40;;;;;;;13.30;9.03;;;;;;;;;;6245094;28;20216;-61
2024/01/30 15:47:41;;;;;;;12.83;10.00;;;;;;;;;;6264973;28;20215;-61
2024/01/30 15:50:42;;;;;;;17.67;10.17;;;;;;;;;;6270816;28;20198;-60
2024/01/30 15:53:43;;;;;;;17.83;9.33;;;;;;;;;;6264892;28;20182;-62
2024/01/30 15:56:44;;;;;;;13.20;9.50;;;;;;;;;;6260793;28;20332;-60
2024/01/30 15:59:45;;;;;;;12.13;9.37;;;5.60;55.90;;;;;;6263435;28;20209;-63
2024/01/30 16:02:45;;;;;;;13.80;8.70;;;4.60;58.70;;;;;;6237017;28;20198;-61
2024/01/30 16:05:48;;;;;;;12.63;9.70;;;4.50;59.10;;;;;;6275365;28;20225;-60
2024/01/30 16:08:49;;;;;;;15.03;9.63;;;4.40;59.30;;;;;;6234655;28;20191;-63